Time;durP1;ratioP1;P1;durP2;ratioP2;P2;SDS_P1;SDS_P2;PMS_P1;PMS_P2;Temp;Humidity;BMP_temperature;BMP_pressure;BME280_temperature;BME280_humidity;BME280_pressure;Samples;Min_cycle;Max_cycle;Signal;HPM_P1;HPM_P2
2021/10/21 00:01:58;;;;;;;22.52;14.90;;;11.60;80.50;;;;;;5077460;28;20118;-73
2021/10/21 00:04:24;;;;;;;21.27;15.48;;;11.60;80.80;;;;;;5077371;28;20055;-73
2021/10/21 00:06:50;;;;;;;22.10;15.35;;;11.60;81.00;;;;;;5077267;28;20052;-74
2021/10/21 00:09:16;;;;;;;19.67;14.70;;;11.50;81.20;;;;;;5077236;28;20538;-71
2021/10/21 00:11:42;;;;;;;22.75;16.67;;;11.50;81.60;;;;;;5096073;28;20055;-72
2021/10/21 00:14:08;;;;;;;20.90;15.60;;;11.50;81.80;;;;;;5111068;28;20031;-71
2021/10/21 00:16:34;;;;;;;22.50;16.52;;;11.50;82.10;;;;;;5077261;28;20399;-71
2021/10/21 00:18:59;;;;;;;21.95;16.75;;;11.50;82.30;;;;;;5092005;28;20032;-76
2021/10/21 00:21:25;;;;;;;21.63;15.65;;;11.40;82.40;;;;;;5077082;28;20073;-73
2021/10/21 00:23:51;;;;;;;23.17;16.27;;;11.40;82.70;;;;;;5091366;28;20032;-78
2021/10/21 00:26:17;;;;;;;23.38;17.48;;;11.30;82.90;;;;;;5094250;28;20029;-74
2021/10/21 00:28:43;;;;;;;21.75;16.73;;;11.30;83.20;;;;;;5095788;28;20050;-71
2021/10/21 00:31:08;;;;;;;23.75;17.33;;;11.30;83.40;;;;;;5095179;28;20047;-75
2021/10/21 00:33:34;;;;;;;25.75;17.70;;;11.30;83.70;;;;;;5077089;28;20032;-76
2021/10/21 00:35:59;;;;;;;23.65;17.45;;;11.30;83.90;;;;;;5094902;28;20024;-73
2021/10/21 00:38:25;;;;;;;23.73;17.88;;;11.20;84.10;;;;;;5094333;28;20024;-74
2021/10/21 00:40:51;;;;;;;23.17;18.48;;;11.20;84.20;;;;;;5095033;28;20024;-74
2021/10/21 00:43:17;;;;;;;27.40;18.50;;;11.20;84.70;;;;;;5088919;28;20031;-74
2021/10/21 00:45:43;;;;;;;24.52;18.77;;;11.20;85.00;;;;;;5095045;28;20036;-73
2021/10/21 00:48:09;;;;;;;23.60;18.25;;;11.20;85.10;;;;;;5068931;28;20040;-71
2021/10/21 00:50:35;;;;;;;22.30;17.88;;;11.10;85.20;;;;;;5077053;28;20417;-78
2021/10/21 00:53:02;;;;;;;26.00;18.48;;;11.10;85.60;;;;;;5075033;28;20377;-73
2021/10/21 00:55:28;;;;;;;27.95;19.23;;;11.00;86.10;;;;;;5076282;28;20050;-71
2021/10/21 00:57:55;;;;;;;26.02;19.10;;;11.10;86.60;;;;;;5075805;28;20032;-72
2021/10/21 01:00:21;;;;;;;27.48;19.45;;;11.00;86.70;;;;;;5076057;28;20024;-72
2021/10/21 01:02:46;;;;;;;26.42;19.73;;;11.00;87.00;;;;;;5076492;28;20543;-75
2021/10/21 01:05:13;;;;;;;26.58;19.33;;;11.00;87.30;;;;;;5094496;28;20028;-74
2021/10/21 01:07:39;;;;;;;29.05;20.35;;;10.90;87.60;;;;;;5094596;28;20052;-71
2021/10/21 01:10:07;;;;;;;30.70;20.45;;;10.90;87.80;;;;;;5094720;28;20050;-72
2021/10/21 01:12:33;;;;;;;25.80;19.27;;;10.90;88.20;;;;;;5092444;28;20386;-71
2021/10/21 01:15:23;;;;;;;26.35;20.27;;;10.90;88.70;;;;;;5076798;28;20020;-71
2021/10/21 01:17:52;;;;;;;28.77;20.48;;;10.80;88.60;;;;;;5090138;28;20024;-74
2021/10/21 01:20:19;;;;;;;29.85;21.98;;;10.80;89.00;;;;;;5093796;28;20028;-76
2021/10/21 01:22:46;;;;;;;28.92;20.88;;;10.80;89.50;;;;;;5086662;28;20073;-74
2021/10/21 01:25:13;;;;;;;27.95;20.35;;;10.80;89.70;;;;;;5076162;28;20107;-74
2021/10/21 01:27:40;;;;;;;29.92;20.70;;;10.70;90.10;;;;;;5075967;28;20474;-75
2021/10/21 01:30:06;;;;;;;29.42;20.63;;;10.80;90.30;;;;;;5094208;28;20031;-75
2021/10/21 01:32:35;;;;;;;28.30;20.77;;;10.70;90.50;;;;;;5093505;28;20028;-71
2021/10/21 01:35:03;;;;;;;30.98;21.38;;;10.70;90.60;;;;;;5094647;28;20403;-76
2021/10/21 01:37:31;;;;;;;28.13;21.33;;;10.70;90.80;;;;;;5093470;28;20032;-74
2021/10/21 01:39:57;;;;;;;29.23;20.98;;;10.70;91.10;;;;;;5074397;28;20056;-76
2021/10/21 01:42:23;;;;;;;30.00;20.60;;;10.70;91.20;;;;;;5092416;28;20070;-72
2021/10/21 01:44:48;;;;;;;31.13;22.10;;;10.70;91.40;;;;;;5093402;28;20044;-75
2021/10/21 01:47:14;;;;;;;31.25;21.77;;;10.70;91.50;;;;;;5094003;28;20043;-74
2021/10/21 01:49:40;;;;;;;30.20;21.30;;;10.70;91.70;;;;;;5075969;28;20024;-71
2021/10/21 01:52:06;;;;;;;31.58;21.73;;;10.70;91.80;;;;;;5093648;28;20075;-72
2021/10/21 01:54:31;;;;;;;30.40;23.05;;;10.70;91.90;;;;;;5093459;28;20445;-72
2021/10/21 01:56:57;;;;;;;28.75;20.48;;;10.60;92.00;;;;;;5092558;28;20386;-76
2021/10/21 01:59:23;;;;;;;30.45;21.85;;;10.60;92.20;;;;;;5086302;28;20107;-73
2021/10/21 02:01:48;;;;;;;31.08;22.05;;;10.60;92.30;;;;;;5093605;28;20465;-77
2021/10/21 02:04:14;;;;;;;29.80;21.50;;;10.60;92.50;;;;;;5075007;28;20028;-75
2021/10/21 02:06:40;;;;;;;28.83;21.20;;;10.60;92.60;;;;;;5074959;28;20056;-76
2021/10/21 02:09:05;;;;;;;29.75;22.17;;;10.60;92.80;;;;;;5074765;28;20134;-71
2021/10/21 02:11:31;;;;;;;31.88;21.90;;;10.60;92.90;;;;;;5092681;28;20028;-72
2021/10/21 02:13:56;;;;;;;30.83;22.15;;;10.60;93.00;;;;;;5093439;28;20522;-72
2021/10/21 02:16:23;;;;;;;31.13;21.85;;;10.60;93.40;;;;;;5074674;28;20139;-77
2021/10/21 02:18:48;;;;;;;30.60;21.75;;;10.60;93.40;;;;;;5093693;28;20028;-77
2021/10/21 02:21:14;;;;;;;31.40;22.35;;;10.60;93.60;;;;;;5093724;28;20374;-76
2021/10/21 02:23:40;;;;;;;27.95;20.73;;;10.60;93.80;;;;;;5075089;28;20028;-73
2021/10/21 02:26:05;;;;;;;29.23;20.70;;;10.60;93.80;;;;;;5092064;28;20032;-75
2021/10/21 02:28:31;;;;;;;27.92;21.08;;;10.60;94.20;;;;;;5074717;28;20040;-75
2021/10/21 02:30:57;;;;;;;30.00;21.20;;;10.50;94.10;;;;;;5092069;28;20027;-74
2021/10/21 02:33:23;;;;;;;29.52;21.05;;;10.50;94.30;;;;;;5093140;28;20438;-72
2021/10/21 02:35:48;;;;;;;30.40;20.88;;;10.50;94.50;;;;;;5093115;28;20114;-70
2021/10/21 02:38:14;;;;;;;30.83;21.20;;;10.50;94.50;;;;;;5074237;28;20024;-75
2021/10/21 02:40:40;;;;;;;29.67;21.08;;;10.50;94.60;;;;;;5087829;28;20024;-71
2021/10/21 02:43:06;;;;;;;30.58;22.30;;;10.50;94.70;;;;;;5070117;28;20032;-73
2021/10/21 02:45:32;;;;;;;28.05;20.92;;;10.50;94.90;;;;;;5088387;28;20028;-76
2021/10/21 02:47:57;;;;;;;30.95;20.20;;;10.50;95.10;;;;;;5073299;28;20135;-75
2021/10/21 02:50:24;;;;;;;31.48;21.92;;;10.50;95.00;;;;;;5092495;28;20036;-73
2021/10/21 02:52:50;;;;;;;29.65;20.55;;;10.50;95.30;;;;;;5093242;28;20032;-71
2021/10/21 02:55:16;;;;;;;31.05;21.63;;;10.40;95.40;;;;;;5075254;28;20024;-75
2021/10/21 02:57:42;;;;;;;30.20;20.30;;;10.40;95.40;;;;;;5074716;28;20028;-77
2021/10/21 03:00:09;;;;;;;30.52;20.92;;;10.40;95.60;;;;;;5084398;28;20028;-76
2021/10/21 03:02:36;;;;;;;31.48;21.67;;;10.40;95.80;;;;;;5074730;28;20028;-72
2021/10/21 03:05:02;;;;;;;30.52;21.35;;;10.40;95.80;;;;;;5074673;28;20028;-75
2021/10/21 03:07:27;;;;;;;26.85;19.88;;;10.40;96.00;;;;;;5092600;28;20051;-77
2021/10/21 03:09:53;;;;;;;31.55;22.23;;;10.40;96.10;;;;;;5092847;28;20175;-77
2021/10/21 03:12:18;;;;;;;27.63;20.52;;;10.40;96.20;;;;;;5091926;28;20513;-74
2021/10/21 03:14:44;;;;;;;28.88;20.48;;;10.40;96.30;;;;;;5087920;28;20020;-80
2021/10/21 03:17:10;;;;;;;29.98;21.33;;;10.40;96.50;;;;;;5074938;28;20028;-72
2021/10/21 03:19:36;;;;;;;32.92;22.15;;;10.40;96.70;;;;;;5092506;28;20052;-74
2021/10/21 03:22:02;;;;;;;29.30;21.42;;;10.40;96.70;;;;;;5074378;28;20363;-72
2021/10/21 03:24:28;;;;;;;30.33;20.85;;;10.40;96.80;;;;;;5073596;28;20111;-72
2021/10/21 03:26:53;;;;;;;28.80;20.63;;;10.40;96.90;;;;;;5092718;28;20111;-72
2021/10/21 03:29:19;;;;;;;27.30;20.05;;;10.40;96.90;;;;;;5092169;28;20091;-76
2021/10/21 03:31:45;;;;;;;28.98;20.80;;;10.40;97.10;;;;;;5074373;28;20032;-74
2021/10/21 03:34:10;;;;;;;29.60;18.70;;;10.40;97.20;;;;;;5107935;28;20035;-76
2021/10/21 03:36:36;;;;;;;28.17;20.23;;;10.40;96.90;;;;;;5093000;28;20038;-76
2021/10/21 03:39:03;;;;;;;30.00;21.10;;;10.40;97.20;;;;;;5091728;28;20024;-75
2021/10/21 03:41:28;;;;;;;31.20;18.55;;;10.40;97.10;;;;;;5074551;28;20474;-72
2021/10/21 03:43:54;;;;;;;29.17;21.48;;;10.40;97.20;;;;;;5091971;28;20060;-75
2021/10/21 03:46:20;;;;;;;29.50;21.20;;;10.40;97.30;;;;;;5074130;28;20531;-74
2021/10/21 03:48:45;;;;;;;27.05;19.25;;;10.40;97.30;;;;;;5073880;28;20394;-73
2021/10/21 03:51:11;;;;;;;27.52;20.05;;;10.40;97.40;;;;;;5074268;28;20438;-73
2021/10/21 03:53:37;;;;;;;33.25;24.85;;;10.40;97.40;;;;;;5092218;28;20497;-74
2021/10/21 03:56:03;;;;;;;29.13;21.42;;;10.40;97.30;;;;;;5073846;28;20025;-75
2021/10/21 03:58:29;;;;;;;30.42;21.40;;;10.30;97.50;;;;;;5073469;28;20527;-73
2021/10/21 04:00:55;;;;;;;30.17;21.85;;;10.40;97.50;;;;;;5087861;28;20029;-75
2021/10/21 04:03:20;;;;;;;29.15;21.02;;;10.40;97.60;;;;;;5095674;28;20486;-71
2021/10/21 04:05:46;;;;;;;29.10;21.00;;;10.30;97.50;;;;;;5099438;28;20458;-71
2021/10/21 04:08:11;;;;;;;34.53;26.35;;;10.30;97.80;;;;;;5082722;28;20044;-73
2021/10/21 04:10:37;;;;;;;26.92;19.83;;;10.30;97.60;;;;;;5079915;28;20519;-71
2021/10/21 04:13:03;;;;;;;29.33;21.15;;;10.30;97.80;;;;;;5091126;28;20429;-71
2021/10/21 04:15:29;;;;;;;29.20;21.40;;;10.30;97.80;;;;;;5086545;28;20390;-70
2021/10/21 04:17:55;;;;;;;28.42;19.38;;;10.30;97.80;;;;;;5068999;28;20081;-73
2021/10/21 04:20:22;;;;;;;30.42;20.58;;;10.30;97.90;;;;;;5070817;28;20027;-70
2021/10/21 04:22:48;;;;;;;27.98;21.20;;;10.30;97.90;;;;;;5088463;28;20030;-71
2021/10/21 04:25:13;;;;;;;30.25;21.10;;;10.20;98.10;;;;;;5088602;28;20035;-72
2021/10/21 04:27:39;;;;;;;28.77;21.67;;;10.20;98.10;;;;;;5103168;28;20040;-72
2021/10/21 04:30:06;;;;;;;28.63;21.02;;;10.20;98.20;;;;;;5072073;28;20032;-72
2021/10/21 04:32:32;;;;;;;29.60;21.77;;;10.20;98.30;;;;;;5062637;28;20032;-75
2021/10/21 04:34:58;;;;;;;31.40;21.55;;;10.20;98.40;;;;;;5062588;28;20039;-68
2021/10/21 04:37:25;;;;;;;29.35;21.50;;;10.30;98.40;;;;;;5081062;28;20047;-73
2021/10/21 04:39:51;;;;;;;34.15;22.90;;;10.30;98.40;;;;;;5065285;28;20452;-70
2021/10/21 04:42:17;;;;;;;36.00;25.92;;;10.30;98.40;;;;;;5084769;28;20025;-71
2021/10/21 04:44:43;;;;;;;32.72;24.55;;;10.30;98.40;;;;;;5079233;28;20031;-73
2021/10/21 04:47:09;;;;;;;31.98;21.83;;;10.30;98.60;;;;;;5080663;28;20040;-71
2021/10/21 04:49:35;;;;;;;33.03;22.27;;;10.30;98.50;;;;;;5079154;28;20352;-71
2021/10/21 04:52:01;;;;;;;30.27;21.55;;;10.30;98.40;;;;;;5081013;28;20035;-71
2021/10/21 04:54:27;;;;;;;29.85;21.52;;;10.40;98.30;;;;;;5091174;28;20078;-71
2021/10/21 04:56:53;;;;;;;30.85;22.10;;;10.40;98.10;;;;;;5091224;28;20109;-72
2021/10/21 04:59:18;;;;;;;28.67;20.75;;;10.40;98.00;;;;;;5075128;28;20024;-70
2021/10/21 05:01:44;;;;;;;29.48;20.65;;;10.50;98.00;;;;;;5072112;28;20024;-72
2021/10/21 05:04:10;;;;;;;28.88;20.27;;;10.50;97.90;;;;;;5088569;28;20048;-74
2021/10/21 05:06:35;;;;;;;31.48;21.05;;;10.60;97.90;;;;;;5099932;28;20468;-77
2021/10/21 05:09:01;;;;;;;27.15;19.63;;;10.70;97.60;;;;;;5079083;28;20039;-77
2021/10/21 05:11:27;;;;;;;26.75;19.25;;;10.90;96.80;;;;;;5075683;28;20035;-74
2021/10/21 05:13:53;;;;;;;26.52;20.17;;;11.00;96.30;;;;;;5106019;28;20119;-76
2021/10/21 05:16:18;;;;;;;28.77;19.10;;;11.10;95.40;;;;;;5093890;28;20024;-76
2021/10/21 05:18:45;;;;;;;25.90;18.73;;;11.30;94.90;;;;;;5090053;28;20432;-74
2021/10/21 05:21:10;;;;;;;28.95;20.15;;;11.50;93.90;;;;;;5074935;28;20072;-76
2021/10/21 05:23:36;;;;;;;26.33;19.08;;;11.60;92.80;;;;;;5082007;28;20036;-76
2021/10/21 05:26:02;;;;;;;26.65;18.60;;;11.70;92.50;;;;;;5070775;28;20543;-74
2021/10/21 05:28:28;;;;;;;27.02;19.20;;;11.80;92.00;;;;;;5069007;28;21319;-76
2021/10/21 05:30:53;;;;;;;25.10;18.33;;;11.90;91.40;;;;;;5105752;28;20081;-74
2021/10/21 05:33:23;;;;;;;25.83;18.80;;;12.00;90.90;;;;;;5082730;28;20032;-75
2021/10/21 05:35:49;;;;;;;27.38;19.05;;;12.10;90.30;;;;;;5106064;28;20104;-76
2021/10/21 05:38:15;;;;;;;27.83;17.63;;;12.30;90.30;;;;;;5073733;28;20153;-76
2021/10/21 05:40:40;;;;;;;22.63;14.88;;;12.40;88.60;;;;;;5088442;28;20059;-82
2021/10/21 05:43:06;;;;;;;27.92;19.55;;;12.50;87.50;;;;;;5074306;28;20101;-79
2021/10/21 05:45:32;;;;;;;29.58;18.90;;;12.60;86.60;;;;;;5093329;28;20032;-77
2021/10/21 05:47:57;;;;;;;33.20;21.08;;;12.80;86.10;;;;;;5088136;28;20043;-73
2021/10/21 05:50:23;;;;;;;30.77;20.13;;;12.90;85.30;;;;;;5077259;28;20036;-74
2021/10/21 05:52:49;;;;;;;35.20;20.83;;;13.10;84.40;;;;;;5074577;28;20385;-82
2021/10/21 05:55:15;;;;;;;29.50;19.00;;;13.30;83.60;;;;;;5093364;28;20020;-74
2021/10/21 05:57:40;;;;;;;22.58;15.75;;;13.50;81.90;;;;;;5092535;28;20077;-81
2021/10/21 06:00:08;;;;;;;27.15;17.77;;;13.70;80.70;;;;;;5078266;28;20054;-79
2021/10/21 06:02:35;;;;;;;23.30;16.77;;;13.90;80.40;;;;;;5073224;28;20085;-77
2021/10/21 06:05:02;;;;;;;21.55;15.23;;;14.10;78.30;;;;;;5074880;28;20115;-77
2021/10/21 06:07:28;;;;;;;22.15;16.67;;;14.30;77.80;;;;;;5069379;28;20052;-74
2021/10/21 06:09:56;;;;;;;21.70;14.55;;;14.50;76.80;;;;;;5090500;28;20039;-71
2021/10/21 06:12:23;;;;;;;20.13;14.95;;;14.80;75.90;;;;;;5068765;28;20028;-70
2021/10/21 06:14:49;;;;;;;22.30;15.60;;;14.90;74.40;;;;;;5092559;28;20034;-72
2021/10/21 06:17:15;;;;;;;21.40;14.70;;;14.80;74.20;;;;;;5076635;28;20119;-70
2021/10/21 06:19:41;;;;;;;22.70;15.40;;;14.80;74.10;;;;;;5100483;28;20039;-70
2021/10/21 06:22:09;;;;;;;20.67;14.43;;;14.80;73.60;;;;;;5097738;28;20031;-70
2021/10/21 06:24:35;;;;;;;22.40;16.58;;;14.70;73.90;;;;;;5077180;28;20028;-71
2021/10/21 06:27:00;;;;;;;20.90;13.52;;;14.80;74.30;;;;;;5065331;28;20372;-70
2021/10/21 06:29:26;;;;;;;19.70;15.38;;;15.10;73.30;;;;;;5079795;28;20084;-71
2021/10/21 06:31:53;;;;;;;19.08;15.00;;;15.20;73.10;;;;;;5082927;28;20450;-70
2021/10/21 06:34:18;;;;;;;19.25;14.38;;;15.50;72.10;;;;;;5077725;28;20029;-69
2021/10/21 06:36:45;;;;;;;19.05;14.43;;;15.60;71.80;;;;;;5065767;28;20089;-71
2021/10/21 06:39:11;;;;;;;17.75;13.55;;;15.80;70.80;;;;;;5058584;28;20031;-70
2021/10/21 06:41:36;;;;;;;18.88;14.10;;;16.10;69.70;;;;;;5069747;28;20032;-69
2021/10/21 06:44:03;;;;;;;17.65;13.40;;;16.30;69.20;;;;;;5084068;28;20037;-72
2021/10/21 06:46:29;;;;;;;17.92;13.65;;;16.60;69.00;;;;;;5087564;28;20077;-70
2021/10/21 06:48:55;;;;;;;19.38;12.88;;;16.90;68.20;;;;;;5070125;28;20032;-71
2021/10/21 06:51:21;;;;;;;17.13;12.57;;;17.10;66.70;;;;;;5086068;28;20056;-72
2021/10/21 06:53:47;;;;;;;19.17;12.20;;;17.00;65.80;;;;;;5088536;28;20020;-71
2021/10/21 06:56:13;;;;;;;18.88;13.95;;;16.80;65.80;;;;;;5090648;28;20023;-72
2021/10/21 06:58:39;;;;;;;17.50;13.13;;;16.50;66.30;;;;;;5072599;28;20047;-71
2021/10/21 07:01:05;;;;;;;19.25;12.82;;;16.40;67.00;;;;;;5091370;28;20386;-71
2021/10/21 07:03:31;;;;;;;17.52;13.02;;;16.40;67.10;;;;;;5091273;28;20031;-74
2021/10/21 07:05:57;;;;;;;17.33;13.18;;;16.30;66.90;;;;;;5090365;28;20028;-71
2021/10/21 07:08:25;;;;;;;15.90;11.05;;;16.20;67.10;;;;;;5072494;28;20101;-71
2021/10/21 07:10:51;;;;;;;17.33;12.38;;;16.30;66.90;;;;;;5090957;28;20110;-73
2021/10/21 07:13:16;;;;;;;15.15;12.05;;;16.30;66.90;;;;;;5073328;28;20115;-71
2021/10/21 07:15:42;;;;;;;14.48;11.85;;;16.50;66.50;;;;;;5073003;28;20027;-70
2021/10/21 07:18:08;;;;;;;16.38;11.25;;;16.80;66.10;;;;;;5072255;28;20059;-71
2021/10/21 07:20:34;;;;;;;14.18;10.75;;;17.20;65.60;;;;;;5072934;28;20035;-70
2021/10/21 07:22:59;;;;;;;14.30;10.68;;;17.60;64.30;;;;;;5091728;28;20081;-70
2021/10/21 07:25:28;;;;;;;16.35;10.80;;;17.90;62.90;;;;;;5073069;28;20032;-71
2021/10/21 07:27:56;;;;;;;17.10;11.75;;;18.20;61.90;;;;;;5090942;28;20024;-71
2021/10/21 07:30:22;;;;;;;14.82;11.25;;;18.20;61.00;;;;;;5091422;28;20028;-70
2021/10/21 07:32:47;;;;;;;13.63;10.27;;;18.20;61.50;;;;;;5073247;28;20072;-71
2021/10/21 07:35:14;;;;;;;16.08;11.02;;;18.30;60.80;;;;;;5072798;28;20040;-71
2021/10/21 07:37:40;;;;;;;17.65;12.35;;;18.30;61.30;;;;;;5072691;28;20047;-71
2021/10/21 07:40:08;;;;;;;20.60;13.38;;;18.50;60.20;;;;;;5072791;28;20389;-70
2021/10/21 07:42:34;;;;;;;15.95;11.15;;;18.40;59.70;;;;;;5073493;28;20028;-70
2021/10/21 07:45:00;;;;;;;28.25;17.65;;;18.20;60.20;;;;;;5073738;28;20111;-70
2021/10/21 07:47:26;;;;;;;22.67;14.70;;;18.30;60.00;;;;;;5091088;28;20165;-71
2021/10/21 07:49:52;;;;;;;13.45;10.23;;;18.40;60.00;;;;;;5073337;28;20036;-69
2021/10/21 07:52:20;;;;;;;16.33;10.38;;;18.70;60.10;;;;;;5070431;28;20028;-70
2021/10/21 07:54:47;;;;;;;12.07;9.25;;;19.00;59.80;;;;;;5066245;28;20363;-71
2021/10/21 07:57:13;;;;;;;17.85;11.75;;;19.40;58.20;;;;;;5091401;28;20027;-70
2021/10/21 07:59:40;;;;;;;16.05;10.10;;;19.30;57.50;;;;;;5091744;28;20024;-71
2021/10/21 08:02:06;;;;;;;13.93;10.02;;;19.30;57.70;;;;;;5073306;28;20114;-71
2021/10/21 08:04:33;;;;;;;15.07;11.00;;;19.40;57.80;;;;;;5073047;28;20047;-68
2021/10/21 08:07:00;;;;;;;15.07;9.10;;;19.40;57.00;;;;;;5075460;28;20044;-71
2021/10/21 08:09:26;;;;;;;16.65;9.85;;;19.40;56.80;;;;;;5077193;28;20032;-71
2021/10/21 08:11:53;;;;;;;12.10;8.85;;;19.20;56.80;;;;;;5077282;28;20454;-71
2021/10/21 08:14:19;;;;;;;13.13;8.95;;;19.10;57.00;;;;;;5095256;28;20464;-71
2021/10/21 08:16:46;;;;;;;14.35;9.60;;;19.00;57.10;;;;;;5095209;28;20382;-69
2021/10/21 08:19:13;;;;;;;13.02;8.98;;;19.00;57.70;;;;;;5095322;28;20099;-70
2021/10/21 08:21:39;;;;;;;14.70;9.32;;;19.10;57.30;;;;;;5095508;28;20032;-71
2021/10/21 08:24:09;;;;;;;11.35;8.68;;;18.90;56.90;;;;;;5095027;28;20103;-70
2021/10/21 08:26:38;;;;;;;11.55;8.60;;;18.90;57.20;;;;;;5077207;28;20040;-71
2021/10/21 08:29:04;;;;;;;11.95;9.10;;;18.80;57.20;;;;;;5094902;28;20120;-70
2021/10/21 08:31:30;;;;;;;13.15;9.20;;;18.80;58.10;;;;;;5076901;28;20078;-69
2021/10/21 08:33:55;;;;;;;11.43;7.80;;;19.00;57.70;;;;;;5094912;28;20032;-71
2021/10/21 08:36:22;;;;;;;14.18;8.23;;;19.10;56.90;;;;;;5076719;28;20034;-70
2021/10/21 08:38:51;;;;;;;11.57;8.60;;;19.10;56.40;;;;;;5076728;28;20055;-71
2021/10/21 08:41:19;;;;;;;12.25;8.77;;;19.10;56.90;;;;;;5094730;28;20050;-70
2021/10/21 08:43:45;;;;;;;11.38;8.05;;;19.20;56.70;;;;;;5076966;28;20484;-71
2021/10/21 08:46:14;;;;;;;11.55;8.13;;;19.30;56.20;;;;;;5076229;28;20028;-74
2021/10/21 08:48:44;;;;;;;12.85;8.02;;;19.20;55.70;;;;;;5094656;28;20074;-70
2021/10/21 08:51:10;;;;;;;11.98;8.73;;;19.30;56.00;;;;;;5076630;28;20439;-70
2021/10/21 08:53:36;;;;;;;13.40;8.45;;;19.30;56.00;;;;;;5094771;28;20163;-70
2021/10/21 08:56:04;;;;;;;9.85;7.68;;;19.40;55.70;;;;;;5076298;28;20032;-70
2021/10/21 08:58:31;;;;;;;11.15;8.82;;;19.60;55.70;;;;;;5094510;28;20378;-71
2021/10/21 09:01:07;;;;;;;11.07;8.07;;;19.70;54.90;;;;;;5076487;28;20470;-71
2021/10/21 09:03:59;;;;;;;11.27;8.50;;;19.60;54.60;;;;;;5094659;28;20024;-70
2021/10/21 09:08:50;;;;;;;14.10;8.52;;;19.30;55.10;;;;;;5093810;28;20100;-75
2021/10/21 09:11:23;;;;;;;14.18;8.00;;;19.30;55.10;;;;;;5076343;28;20032;-71
2021/10/21 09:14:10;;;;;;;13.02;8.32;;;19.40;55.00;;;;;;5076073;28;20031;-71
2021/10/21 09:16:36;;;;;;;11.82;7.60;;;19.50;55.10;;;;;;5069045;28;20038;-70
2021/10/21 09:19:12;;;;;;;9.23;7.78;;;19.50;54.70;;;;;;5093980;28;20028;-69
2021/10/21 09:21:42;;;;;;;10.43;7.50;;;19.30;54.70;;;;;;5087502;28;20028;-70
2021/10/21 09:24:33;;;;;;;15.20;8.23;;;19.10;54.90;;;;;;5075549;28;20044;-68
2021/10/21 09:27:09;;;;;;;9.02;7.50;;;19.00;54.70;;;;;;5093967;28;20044;-70
2021/10/21 09:29:50;;;;;;;11.48;7.70;;;18.90;55.20;;;;;;5075600;28;20116;-69
2021/10/21 09:32:24;;;;;;;10.63;7.20;;;18.90;55.70;;;;;;5075400;28;20028;-70
2021/10/21 09:35:04;;;;;;;11.85;7.28;;;19.00;54.80;;;;;;5088226;28;20355;-69
2021/10/21 09:37:41;;;;;;;13.48;7.60;;;18.90;54.80;;;;;;5093563;28;20067;-70
2021/10/21 09:40:12;;;;;;;11.57;7.47;;;18.90;55.10;;;;;;5075552;28;20430;-72
2021/10/21 09:42:41;;;;;;;13.23;7.07;;;19.30;54.50;;;;;;5093325;28;20058;-70
2021/10/21 09:45:20;;;;;;;13.48;7.47;;;19.80;53.50;;;;;;5093886;28;20059;-70
2021/10/21 09:47:49;;;;;;;12.18;7.63;;;20.20;52.70;;;;;;5069769;28;20039;-70
2021/10/21 09:50:38;;;;;;;10.15;7.30;;;20.70;52.90;;;;;;5093615;28;20020;-70
2021/10/21 09:53:22;;;;;;;9.38;6.93;;;21.20;51.30;;;;;;5075680;28;20501;-69
2021/10/21 09:55:59;;;;;;;12.05;7.35;;;21.30;50.90;;;;;;5067818;28;20020;-68
2021/10/21 09:58:26;;;;;;;16.00;7.85;;;21.20;51.10;;;;;;5074832;28;20072;-71
2021/10/21 10:01:13;;;;;;;10.48;7.32;;;20.90;51.20;;;;;;5093538;28;20027;-69
2021/10/21 10:03:46;;;;;;;12.00;7.03;;;20.60;51.20;;;;;;5074931;28;20051;-69
2021/10/21 10:06:18;;;;;;;13.20;7.55;;;20.50;51.40;;;;;;5093256;28;20081;-69
2021/10/21 10:08:44;;;;;;;10.10;7.07;;;20.40;51.30;;;;;;5093047;28;20131;-70
2021/10/21 10:11:12;;;;;;;10.80;8.10;;;20.20;51.90;;;;;;5075315;28;20051;-70
2021/10/21 10:13:40;;;;;;;12.48;7.53;;;20.00;52.60;;;;;;5093145;28;20497;-69
2021/10/21 10:16:07;;;;;;;12.40;7.80;;;19.90;53.00;;;;;;5093351;28;20028;-70
2021/10/21 10:18:40;;;;;;;11.82;8.00;;;19.90;53.30;;;;;;5075020;28;20035;-70
2021/10/21 10:21:37;;;;;;;8.68;7.22;;;19.90;53.40;;;;;;5075129;28;20089;-70
2021/10/21 10:24:14;;;;;;;9.73;7.38;;;19.90;52.70;;;;;;5093083;28;20028;-70
2021/10/21 10:26:47;;;;;;;11.35;6.63;;;20.00;53.50;;;;;;5074489;28;20032;-71
2021/10/21 10:29:16;;;;;;;22.20;13.95;;;20.40;53.00;;;;;;5092489;28;20038;-71
2021/10/21 10:31:44;;;;;;;12.35;7.18;;;20.90;51.90;;;;;;5092901;28;20034;-69
2021/10/21 10:34:32;;;;;;;9.10;6.80;;;21.30;51.00;;;;;;5074562;28;20028;-69
2021/10/21 10:37:13;;;;;;;11.05;7.25;;;21.20;50.50;;;;;;5074558;28;20028;-68
2021/10/21 10:40:00;;;;;;;12.82;7.38;;;21.10;51.00;;;;;;5075039;28;20082;-68
2021/10/21 10:42:28;;;;;;;10.48;6.35;;;20.90;51.40;;;;;;5093068;28;20081;-70
2021/10/21 10:44:54;;;;;;;11.35;7.40;;;20.80;51.60;;;;;;5092993;28;20035;-70
2021/10/21 10:47:45;;;;;;;14.23;7.97;;;20.70;51.80;;;;;;5092879;28;20036;-70
2021/10/21 10:50:23;;;;;;;12.32;7.20;;;20.60;52.40;;;;;;5071196;28;20039;-68
2021/10/21 10:52:52;;;;;;;9.65;5.82;;;20.40;52.50;;;;;;5074341;28;20458;-72
2021/10/21 10:55:37;;;;;;;12.25;6.32;;;20.40;52.80;;;;;;5089525;28;20032;-70
2021/10/21 10:58:04;;;;;;;10.40;7.10;;;20.30;52.60;;;;;;5074589;28;20489;-70
2021/10/21 11:00:38;;;;;;;8.95;5.95;;;20.10;53.20;;;;;;5092755;28;20469;-68
2021/10/21 11:03:08;;;;;;;10.90;7.00;;;19.90;53.20;;;;;;5074611;28;20032;-69
2021/10/21 11:05:55;;;;;;;9.05;6.43;;;19.60;54.10;;;;;;5092320;28;20262;-70
2021/10/21 11:08:41;;;;;;;8.35;5.65;;;19.50;54.50;;;;;;5092639;28;20048;-69
2021/10/21 11:11:06;;;;;;;9.90;7.00;;;19.50;54.60;;;;;;5090606;28;20032;-71
2021/10/21 11:13:32;;;;;;;10.52;6.60;;;19.50;55.00;;;;;;5074629;28;20082;-71
2021/10/21 11:15:58;;;;;;;9.98;6.45;;;19.70;55.00;;;;;;5073715;28;20111;-75
2021/10/21 11:18:44;;;;;;;13.10;7.32;;;19.80;54.60;;;;;;5092726;28;20024;-70
2021/10/21 11:21:46;;;;;;;9.82;6.43;;;20.10;54.70;;;;;;5074114;28;20498;-69
2021/10/21 11:24:45;;;;;;;9.52;6.38;;;20.40;53.60;;;;;;5074016;28;20035;-70
2021/10/21 11:27:11;;;;;;;10.32;6.85;;;20.40;53.00;;;;;;5074454;28;20032;-70
2021/10/21 11:29:38;;;;;;;11.48;5.70;;;20.20;54.10;;;;;;5092869;28;20089;-70
2021/10/21 11:32:08;;;;;;;10.95;6.05;;;20.00;53.90;;;;;;5074065;28;20466;-72
2021/10/21 11:34:35;;;;;;;12.75;6.40;;;19.80;54.40;;;;;;5063202;28;20522;-72
2021/10/21 11:37:02;;;;;;;11.13;6.88;;;19.60;54.90;;;;;;5104974;28;20051;-72
2021/10/21 11:39:39;;;;;;;8.85;6.13;;;19.40;55.00;;;;;;5084502;28;20020;-71
2021/10/21 11:42:10;;;;;;;10.02;6.53;;;19.30;55.80;;;;;;5070195;28;20024;-76
2021/10/21 11:44:38;;;;;;;11.15;5.50;;;19.30;56.10;;;;;;5090747;28;20035;-74
2021/10/21 11:47:06;;;;;;;9.00;5.20;;;19.30;55.70;;;;;;5075273;28;20043;-73
2021/10/21 11:49:35;;;;;;;9.68;5.70;;;19.20;56.10;;;;;;5088683;28;20378;-69
2021/10/21 11:52:11;;;;;;;11.80;5.70;;;19.30;56.30;;;;;;5102284;28;20058;-71
2021/10/21 11:54:38;;;;;;;7.43;4.97;;;19.30;56.40;;;;;;5088233;28;20120;-71
2021/10/21 11:57:04;;;;;;;9.10;5.05;;;19.30;56.40;;;;;;5091327;28;20036;-70
2021/10/21 11:59:42;;;;;;;6.63;4.68;;;19.40;56.20;;;;;;5077524;28;20052;-71
2021/10/21 12:02:07;;;;;;;9.65;5.40;;;19.50;55.90;;;;;;5086749;28;20020;-72
2021/10/21 12:04:34;;;;;;;8.45;5.47;;;19.60;55.90;;;;;;5066205;28;20028;-71
2021/10/21 12:07:01;;;;;;;10.43;4.75;;;19.70;55.70;;;;;;5078485;28;20415;-70
2021/10/21 12:09:27;;;;;;;10.93;4.78;;;19.80;55.50;;;;;;5066085;28;20059;-69
2021/10/21 12:12:11;;;;;;;8.05;5.13;;;19.70;55.30;;;;;;5066866;28;20054;-75
2021/10/21 12:14:40;;;;;;;8.10;5.13;;;19.70;55.60;;;;;;5070244;28;20463;-74
2021/10/21 12:17:06;;;;;;;12.02;5.30;;;19.60;55.90;;;;;;5060304;28;20493;-75
2021/10/21 12:19:32;;;;;;;7.13;4.75;;;19.60;55.90;;;;;;5062849;28;20430;-75
2021/10/21 12:22:17;;;;;;;9.00;4.45;;;19.50;55.20;;;;;;5064935;28;20024;-76
2021/10/21 12:24:45;;;;;;;7.85;4.57;;;19.40;55.40;;;;;;5066457;28;20110;-74
2021/10/21 12:27:18;;;;;;;7.82;3.85;;;19.30;55.70;;;;;;5065187;28;20190;-73
2021/10/21 12:29:44;;;;;;;8.95;3.42;;;19.20;55.20;;;;;;5066782;28;20021;-73
2021/10/21 12:32:12;;;;;;;9.52;4.00;;;19.10;55.50;;;;;;5062401;28;20040;-75
2021/10/21 12:34:38;;;;;;;5.45;3.83;;;19.10;55.90;;;;;;5060212;28;20021;-73
2021/10/21 12:37:11;;;;;;;6.35;3.92;;;19.20;55.40;;;;;;5100899;28;20039;-75
2021/10/21 12:39:37;;;;;;;6.38;3.45;;;19.30;55.50;;;;;;5068497;28;20105;-74